Time;durP1;ratioP1;P1;durP2;ratioP2;P2;SDS_P1;SDS_P2;PMS_P1;PMS_P2;Temp;Humidity;BMP_temperature;BMP_pressure;BME280_temperature;BME280_humidity;BME280_pressure;Samples;Min_cycle;Max_cycle;Signal;HPM_P1;HPM_P2
2023/12/21 00:00:49;;;;;;;14.45;10.23;;;;;;;12.70;60.88;99982.03;688059;28;1385;-96
2023/12/21 00:01:38;;;;;;;16.52;11.88;;;;;;;12.75;60.52;99966.34;688579;28;1237;-96
2023/12/21 00:02:15;;;;;;;15.57;10.90;;;;;;;12.68;60.99;99951.47;680065;28;1304;-96
2023/12/21 00:02:39;;;;;;;15.45;11.05;;;;;;;12.65;60.72;99956.69;686239;28;1226;-96
2023/12/21 00:03:16;;;;;;;15.55;10.90;;;;;;;12.61;60.88;99951.44;682054;28;1225;-96
2023/12/21 00:03:40;;;;;;;16.15;10.82;;;;;;;12.64;60.84;99949.72;685770;28;1245;-96
2023/12/21 00:04:22;;;;;;;16.15;10.77;;;;;;;12.71;60.72;99964.56;688546;28;1273;-96
2023/12/21 00:05:10;;;;;;;15.10;11.30;;;;;;;12.74;60.97;99960.22;686408;28;1168;-96
2023/12/21 00:06:31;;;;;;;16.42;10.93;;;;;;;12.72;60.89;99959.34;689063;28;1230;-96
2023/12/21 00:07:12;;;;;;;16.77;11.50;;;;;;;12.78;60.71;99973.34;688870;28;1238;-96
2023/12/21 00:09:33;;;;;;;18.90;11.25;;;;;;;12.73;60.81;99953.25;689244;28;1213;-96
2023/12/21 00:09:58;;;;;;;18.02;11.02;;;;;;;12.68;60.84;99949.75;689873;28;1252;-96
2023/12/21 00:10:19;;;;;;;15.77;11.40;;;;;;;12.67;61.10;99960.19;687305;28;1352;-96
2023/12/21 00:10:46;;;;;;;16.98;12.05;;;;;;;12.60;60.87;99970.63;686274;28;1332;-95
2023/12/21 00:11:12;;;;;;;15.82;11.32;;;;;;;12.68;60.99;99973.31;684174;28;1438;-96
2023/12/21 00:11:42;;;;;;;17.23;10.70;;;;;;;12.75;60.94;99968.97;686099;28;974;-96
2023/12/21 00:16:32;;;;;;;17.17;10.38;;;;;;;12.48;61.53;99949.63;689355;28;1466;-96
2023/12/21 00:17:13;;;;;;;14.48;9.70;;;;;;;12.60;61.36;99959.28;691146;28;1158;-96
2023/12/21 00:17:52;;;;;;;14.70;9.73;;;;;;;12.48;61.51;99941.78;689074;28;1312;-96
2023/12/21 00:18:32;;;;;;;15.38;10.13;;;;;;;12.48;61.20;99928.69;686693;28;1237;-96
2023/12/21 00:19:03;;;;;;;16.63;10.70;;;;;;;12.51;61.38;99933.94;686186;28;1284;-96
2023/12/21 00:19:31;;;;;;;17.40;10.88;;;;;;;12.53;61.50;99936.56;688625;28;1457;-95
2023/12/21 00:19:55;;;;;;;15.30;10.60;;;;;;;12.57;60.97;99947.06;683888;29;1446;-96
2023/12/21 00:20:23;;;;;;;15.88;10.35;;;;;;;12.54;61.59;99969.72;683538;29;1434;-96
2023/12/21 00:20:51;;;;;;;15.43;9.82;;;;;;;12.46;61.39;99946.09;683443;28;1237;-96
2023/12/21 00:21:16;;;;;;;16.02;10.00;;;;;;;12.58;61.58;99954.03;690028;28;1288;-96
2023/12/21 00:21:48;;;;;;;14.65;9.55;;;;;;;12.69;61.52;99953.22;689077;28;1206;-96
2023/12/21 00:22:40;;;;;;;14.65;9.52;;;;;;;12.61;61.00;99934.88;686751;28;1414;-96
2023/12/21 00:27:55;;;;;;;13.45;9.10;;;;;;;12.74;61.06;99956.75;681572;29;1176;-96
2023/12/21 00:28:20;;;;;;;12.50;8.90;;;;;;;12.68;61.42;99946.25;681161;29;1127;-96
2023/12/21 00:28:57;;;;;;;12.98;8.73;;;;;;;12.65;60.97;99951.47;676087;29;1252;-96
2023/12/21 00:29:27;;;;;;;14.02;9.27;;;;;;;12.71;61.26;99946.25;673443;29;1471;-96
2023/12/21 00:29:48;;;;;;;13.80;9.30;;;;;;;12.65;61.08;99957.56;676055;29;1396;-96
2023/12/21 00:30:32;;;;;;;12.80;8.90;;;;;;;12.72;61.28;99930.56;682371;28;1209;-96
2023/12/21 00:31:01;;;;;;;13.30;8.60;;;;;;;12.69;61.12;99948.88;686439;28;1391;-95
2023/12/21 00:31:30;;;;;;;12.05;8.30;;;;;;;12.84;60.86;99971.63;690969;28;1229;-96
2023/12/21 00:32:42;;;;;;;10.48;8.10;;;;;;;12.73;60.93;99941.91;686229;28;1196;-96
2023/12/21 00:33:06;;;;;;;12.55;8.75;;;;;;;12.84;60.96;99953.31;685766;28;1142;-95
2023/12/21 00:33:31;;;;;;;12.80;9.18;;;;;;;12.80;61.02;99956.81;683511;29;1465;-96
2023/12/21 00:34:26;;;;;;;13.82;9.50;;;;;;;12.87;61.04;99963.81;680866;29;1342;-96
2023/12/21 00:34:57;;;;;;;13.82;9.07;;;;;;;12.86;60.73;99962.03;677422;29;1138;-96
2023/12/21 00:35:44;;;;;;;11.73;8.40;;;;;;;12.85;60.74;99951.59;684043;29;1274;-96
2023/12/21 00:36:23;;;;;;;12.10;8.55;;;;;;;12.61;61.19;99951.44;685126;28;1316;-95
2023/12/21 00:36:56;;;;;;;10.90;8.23;;;;;;;12.76;61.04;99955.00;683403;28;1488;-96
2023/12/21 00:37:24;;;;;;;12.25;8.48;;;;;;;12.75;61.32;99953.28;686150;28;1243;-96
2023/12/21 00:37:45;;;;;;;12.55;8.57;;;;;;;12.70;61.22;99940.16;680848;28;1257;-96
2023/12/21 00:38:15;;;;;;;11.63;8.32;;;;;;;12.86;60.78;99967.28;683295;28;1291;-95
2023/12/21 00:38:40;;;;;;;11.70;8.23;;;;;;;12.72;61.30;99955.88;686162;28;1139;-95
2023/12/21 00:39:16;;;;;;;10.95;8.20;;;;;;;12.73;61.09;99961.09;680722;29;1267;-96
2023/12/21 00:39:56;;;;;;;10.13;8.10;;;;;;;12.87;61.10;99962.94;681375;29;1280;-96
2023/12/21 00:40:52;;;;;;;;;;;;;;;;;;;;;
2023/12/21 00:41:22;;;;;;;11.50;8.70;;;;;;;12.85;60.95;99956.81;675281;29;1316;-96
2023/12/21 00:41:49;;;;;;;11.27;8.27;;;;;;;12.77;60.88;99943.66;680677;29;1235;-96
2023/12/21 00:42:20;;;;;;;11.10;7.72;;;;;;;12.79;61.24;99941.94;683387;29;1291;-96
2023/12/21 00:42:51;;;;;;;10.65;7.35;;;;;;;12.82;61.02;99939.34;680622;29;1268;-96
2023/12/21 00:43:36;;;;;;;10.00;6.93;;;;;;;12.98;61.05;99948.16;676937;28;1982;-95
2023/12/21 00:44:05;;;;;;;10.20;6.93;;;;;;;12.95;61.04;99945.56;685605;28;1280;-95
2023/12/21 00:44:31;;;;;;;14.18;7.60;;;;;;;12.80;60.85;99925.38;686239;28;1298;-95
2023/12/21 00:45:11;;;;;;;12.85;7.75;;;;;;;12.91;60.81;99935.03;680356;29;1437;-96
2023/12/21 00:46:15;;;;;;;10.57;7.95;;;;;;;12.82;60.95;99923.63;685897;28;1594;-96
2023/12/21 00:46:43;;;;;;;12.23;8.02;;;;;;;12.84;60.84;99963.78;679929;28;1381;-95
2023/12/21 00:47:08;;;;;;;15.02;8.73;;;;;;;12.81;60.93;99929.75;685999;28;1220;-95
2023/12/21 00:47:35;;;;;;;13.07;8.70;;;;;;;12.79;61.05;99926.22;688806;28;1239;-96
2023/12/21 00:48:02;;;;;;;11.80;8.80;;;;;;;12.89;61.09;99929.78;688754;28;1426;-96
2023/12/21 00:48:46;;;;;;;11.57;8.88;;;;;;;12.85;60.78;99926.25;688888;28;1457;-96
2023/12/21 00:49:19;;;;;;;12.20;7.93;;;;;;;12.85;60.92;99925.41;683337;28;1392;-94
2023/12/21 00:50:03;;;;;;;13.70;8.02;;;;;;;12.95;61.05;99928.94;685015;28;1202;-96
2023/12/21 00:50:29;;;;;;;14.05;7.90;;;;;;;12.80;61.22;99924.50;689229;28;1363;-96
2023/12/21 00:51:08;;;;;;;11.80;8.45;;;;;;;12.89;61.24;99922.81;683249;29;1320;-96
2023/12/21 00:52:08;;;;;;;10.02;7.10;;;;;;;12.95;61.15;99929.84;686635;28;1389;-96
2023/12/21 00:52:49;;;;;;;13.65;7.90;;;;;;;12.92;61.04;99928.91;683928;28;1288;-96
2023/12/21 00:53:19;;;;;;;12.43;7.75;;;;;;;12.84;60.76;99916.66;684966;28;1436;-96
2023/12/21 00:54:10;;;;;;;10.90;7.90;;;;;;;12.81;60.82;99906.19;686739;28;1271;-96
2023/12/21 00:54:31;;;;;;;11.25;7.80;;;;;;;12.81;61.22;99911.41;687957;28;1393;-95
2023/12/21 00:55:02;;;;;;;12.75;8.43;;;;;;;12.95;60.96;99942.94;688174;28;1304;-96
2023/12/21 00:55:56;;;;;;;11.48;8.63;;;;;;;12.90;61.00;99921.03;689425;28;1409;-96
2023/12/21 00:56:24;;;;;;;12.45;8.85;;;;;;;12.77;61.11;99909.63;688533;28;1314;-95
2023/12/21 00:56:58;;;;;;;13.18;8.98;;;;;;;12.79;61.21;99918.38;685969;28;1520;-96
2023/12/21 00:57:19;;;;;;;14.90;9.25;;;;;;;12.80;61.07;99909.66;686006;28;1452;-96
2023/12/21 00:57:55;;;;;;;15.48;9.13;;;;;;;12.87;61.30;99908.84;686258;28;1339;-96
2023/12/21 00:58:41;;;;;;;10.75;8.15;;;;;;;12.87;61.19;99916.69;688833;28;896;-96
2023/12/21 00:59:12;;;;;;;12.15;8.85;;;;;;;12.85;61.14;99918.41;685873;28;1398;-96
2023/12/21 00:59:44;;;;;;;13.80;9.23;;;;;;;12.84;61.17;99926.28;683698;29;1170;-96
2023/12/21 01:00:17;;;;;;;12.98;9.13;;;;;;;12.80;61.41;99914.91;686143;28;1335;-96
2023/12/21 01:04:27;;;;;;;16.50;11.38;;;;;;;12.99;61.06;99941.19;686167;28;1177;-96
2023/12/21 01:04:48;;;;;;;17.52;11.55;;;;;;;12.82;61.06;99900.06;683527;29;1318;-95
2023/12/21 01:05:34;;;;;;;17.70;11.30;;;;;;;13.06;60.80;99926.38;680515;29;1159;-96
2023/12/21 01:06:15;;;;;;;15.48;10.57;;;;;;;13.01;61.02;99903.69;675333;29;1321;-95
2023/12/21 01:06:48;;;;;;;20.05;11.63;;;;;;;12.98;61.00;99915.88;680745;29;1369;-94
2023/12/21 01:07:28;;;;;;;17.77;12.20;;;;;;;12.93;60.94;99894.91;681096;29;1233;-96
2023/12/21 01:07:59;;;;;;;16.23;11.23;;;;;;;13.05;60.97;99914.16;677824;29;1327;-96
2023/12/21 01:08:48;;;;;;;17.35;11.50;;;;;;;13.02;60.96;99904.53;675930;29;1354;-96
2023/12/21 01:09:16;;;;;;;15.63;11.48;;;;;;;13.03;61.04;99914.16;675234;29;1407;-95
2023/12/21 01:10:20;;;;;;;16.75;11.48;;;;;;;12.97;60.77;99901.06;678038;29;1115;-96
2023/12/21 01:10:49;;;;;;;17.52;11.27;;;;;;;12.96;60.80;99888.84;678099;29;1246;-96
2023/12/21 01:11:21;;;;;;;16.15;11.20;;;;;;;12.91;60.90;99896.59;680718;29;1177;-96
2023/12/21 01:12:08;;;;;;;17.23;11.40;;;;;;;12.92;60.83;99887.00;678040;29;1396;-96
2023/12/21 01:12:55;;;;;;;17.13;12.10;;;;;;;13.08;60.97;99896.72;683366;29;1383;-96
2023/12/21 01:13:26;;;;;;;14.43;10.63;;;;;;;12.92;61.29;99898.38;679481;29;1435;-96
2023/12/21 01:13:56;;;;;;;15.20;10.93;;;;;;;12.95;61.29;99903.66;686991;28;1295;-96
2023/12/21 01:14:17;;;;;;;14.57;11.27;;;;;;;12.86;61.34;99888.72;688828;28;1256;-96
2023/12/21 01:15:02;;;;;;;13.32;11.38;;;;;;;12.91;61.12;99933.25;685768;28;1356;-95
2023/12/21 01:15:38;;;;;;;14.23;11.20;;;;;;;12.91;61.15;99900.97;683084;29;1271;-96
2023/12/21 01:20:23;;;;;;;12.57;9.70;;;;;;;13.00;61.15;99898.44;694623;28;1433;-95
2023/12/21 01:21:48;;;;;;;15.40;10.23;;;;;;;12.93;61.45;99870.44;682851;29;1530;-94
2023/12/21 01:22:14;;;;;;;13.35;10.50;;;;;;;12.93;61.09;99888.75;688518;28;1253;-95
2023/12/21 01:23:06;;;;;;;12.95;10.27;;;;;;;13.12;60.99;99900.22;688340;28;1225;-96
2023/12/21 01:23:50;;;;;;;14.63;10.15;;;;;;;13.02;61.09;99889.72;686161;28;1322;-96
2023/12/21 01:24:11;;;;;;;13.80;10.10;;;;;;;12.92;61.11;99876.53;685734;28;1292;-95
2023/12/21 01:24:35;;;;;;;13.40;9.65;;;;;;;13.05;61.34;99895.81;689003;28;1211;-96
2023/12/21 01:25:01;;;;;;;14.65;9.98;;;;;;;13.00;61.38;99882.72;688511;28;1232;-95
2023/12/21 01:25:24;;;;;;;14.38;10.10;;;;;;;12.95;60.96;99876.56;689239;28;1491;-95
2023/12/21 01:26:08;;;;;;;14.80;10.23;;;;;;;13.05;60.96;99887.97;686049;28;1352;-96
2023/12/21 01:26:38;;;;;;;16.13;11.07;;;;;;;13.14;61.10;99880.13;690360;28;1250;-96
2023/12/21 01:27:25;;;;;;;16.85;10.77;;;;;;;13.15;60.75;99868.81;686013;28;1576;-96
2023/12/21 01:32:22;;;;;;;15.77;11.77;;;;;;;13.15;61.27;99867.06;697166;28;1305;-96
2023/12/21 01:32:53;;;;;;;15.60;11.18;;;;;;;12.99;61.30;99831.22;688460;28;1403;-94
2023/12/21 01:37:25;;;;;;;18.13;12.25;;;;;;;13.06;61.07;99863.53;685862;28;1400;-95
2023/12/21 01:37:57;;;;;;;14.20;11.07;;;;;;;12.99;61.19;99841.69;682572;29;1230;-95
2023/12/21 01:38:18;;;;;;;15.33;11.23;;;;;;;13.06;61.17;99851.31;680556;29;1204;-96
2023/12/21 01:38:58;;;;;;;16.67;10.95;;;;;;;13.11;61.15;99851.31;685889;28;1238;-96
2023/12/21 01:39:22;;;;;;;16.20;11.00;;;;;;;13.13;60.98;99849.56;680695;29;1218;-96
2023/12/21 01:39:51;;;;;;;17.27;11.52;;;;;;;13.11;61.10;99836.50;677602;29;1228;-96
2023/12/21 01:40:35;;;;;;;17.95;11.80;;;;;;;13.06;61.10;99822.50;680407;29;1298;-96
2023/12/21 01:41:23;;;;;;;15.02;11.13;;;;;;;13.16;61.00;99834.75;683106;29;1314;-96
2023/12/21 01:42:08;;;;;;;12.88;10.30;;;;;;;13.27;60.97;99841.78;683013;29;1235;-96
2023/12/21 01:42:42;;;;;;;16.48;11.10;;;;;;;13.13;60.74;99828.63;680459;29;1374;-95
2023/12/21 01:43:21;;;;;;;16.25;10.80;;;;;;;13.18;60.72;99831.25;680368;29;1443;-96
2023/12/21 01:43:51;;;;;;;19.30;10.85;;;;;;;13.20;60.76;99829.53;686456;28;1232;-96
2023/12/21 01:44:28;;;;;;;;;;;;;;;;;;;;;
2023/12/21 01:47:14;;;;;;;16.10;11.48;;;;;;;13.17;61.22;99838.25;691205;28;1265;-95
2023/12/21 01:47:36;;;;;;;14.98;11.90;;;;;;;13.02;61.17;99810.25;688398;28;1267;-95
2023/12/21 01:48:06;;;;;;;14.15;11.55;;;;;;;13.13;60.98;99816.41;683247;28;1177;-96
2023/12/21 01:48:29;;;;;;;15.10;11.70;;;;;;;13.13;60.96;99826.00;685696;28;1368;-94
2023/12/21 01:48:53;;;;;;;15.02;11.43;;;;;;;13.08;61.16;99812.91;688447;28;1293;-96
2023/12/21 01:49:21;;;;;;;15.20;10.35;;;;;;;13.13;60.98;99820.75;685771;28;1212;-95
2023/12/21 01:49:48;;;;;;;15.88;9.80;;;;;;;13.09;60.86;99819.88;688551;28;1438;-95
2023/12/21 01:50:10;;;;;;;14.13;9.02;;;;;;;13.08;61.30;99810.28;688477;28;1232;-94
2023/12/21 01:50:38;;;;;;;13.40;8.60;;;;;;;13.09;61.18;99798.06;688494;28;1439;-96
2023/12/21 01:51:04;;;;;;;13.20;8.90;;;;;;;13.14;61.09;99815.53;690255;28;1331;-95
2023/12/21 01:51:25;;;;;;;13.27;9.20;;;;;;;13.10;60.90;99808.53;688542;28;1266;-96
2023/12/21 01:51:53;;;;;;;12.02;9.20;;;;;;;13.15;60.99;99808.56;688921;28;1418;-95
2023/12/21 01:52:19;;;;;;;11.45;8.85;;;;;;;13.12;61.05;99816.41;688443;28;1094;-95
2023/12/21 01:52:47;;;;;;;11.65;8.40;;;;;;;13.10;61.23;99813.78;682996;29;1166;-93
2023/12/21 01:53:14;;;;;;;10.75;7.63;;;;;;;13.15;61.11;99833.00;680379;29;1334;-95
2023/12/21 01:53:36;;;;;;;10.05;7.13;;;;;;;13.11;61.09;99814.66;683141;28;1378;-94
2023/12/21 01:54:08;;;;;;;12.55;7.65;;;;;;;13.15;61.18;99827.75;688729;28;1423;-95
2023/12/21 01:54:37;;;;;;;12.52;7.88;;;;;;;13.10;61.13;99819.00;691119;28;1241;-95
2023/12/21 01:55:12;;;;;;;10.90;7.80;;;;;;;13.15;61.01;99822.53;688032;28;1311;-96
2023/12/21 01:55:38;;;;;;;11.63;8.23;;;;;;;13.16;61.07;99813.78;688491;28;1205;-96
2023/12/21 01:56:02;;;;;;;12.20;8.55;;;;;;;13.20;60.70;99821.66;683154;29;1276;-96
2023/12/21 01:56:26;;;;;;;11.63;8.38;;;;;;;13.12;60.78;99806.81;685754;28;1376;-94
2023/12/21 01:56:47;;;;;;;11.32;8.52;;;;;;;13.07;60.73;99833.84;688055;28;1425;-93
2023/12/21 01:57:13;;;;;;;9.88;8.02;;;;;;;12.98;61.22;99812.00;686704;28;1517;-93
2023/12/21 01:57:40;;;;;;;10.15;8.45;;;;;;;13.01;61.29;99806.78;688622;28;1234;-93
2023/12/21 01:58:04;;;;;;;12.57;8.40;;;;;;;12.99;61.26;99798.06;687868;28;1370;-96
2023/12/21 01:58:27;;;;;;;14.23;8.20;;;;;;;13.06;60.98;99801.56;688310;28;1394;-95
2023/12/21 01:58:51;;;;;;;13.70;8.65;;;;;;;13.04;61.12;99802.41;690999;28;1206;-95
2023/12/21 01:59:22;;;;;;;11.95;7.80;;;;;;;13.02;61.04;99815.50;688535;28;1453;-92
2023/12/21 01:59:54;;;;;;;9.52;6.90;;;;;;;13.05;61.15;99812.91;685714;28;1741;-96
2023/12/21 02:00:16;;;;;;;8.98;7.05;;;;;;;13.11;61.13;99818.16;688381;28;1400;-95
2023/12/21 02:00:40;;;;;;;10.15;7.22;;;;;;;13.08;60.93;99799.81;688573;28;1260;-95
2023/12/21 02:01:09;;;;;;;9.45;7.10;;;;;;;13.19;61.19;99823.41;685652;28;1351;-95
2023/12/21 02:01:39;;;;;;;10.10;7.10;;;;;;;13.16;61.16;99815.56;685809;28;1532;-94
2023/12/21 02:03:42;;;;;;;10.35;6.78;;;;;;;13.10;61.10;99799.81;694035;28;704;-96
2023/12/21 02:04:32;;;;;;;7.78;6.55;;;;;;;13.07;61.01;99807.66;696805;28;859;-95
2023/12/21 02:05:23;;;;;;;13.02;8.05;;;;;;;13.06;61.42;99806.78;694047;28;712;-96
2023/12/21 02:07:13;;;;;;;12.60;8.57;;;;;;;13.00;61.55;99802.41;691389;28;713;-95
2023/12/21 02:07:47;;;;;;;11.35;8.00;;;;;;;12.94;61.63;99801.50;690945;28;1372;-94
2023/12/21 02:08:11;;;;;;;10.95;7.80;;;;;;;12.93;61.46;99784.94;688463;28;1456;-96
2023/12/21 02:08:31;;;;;;;11.05;8.55;;;;;;;13.05;61.48;99807.66;691323;28;1122;-96
2023/12/21 02:08:56;;;;;;;11.52;8.57;;;;;;;12.96;61.40;99786.69;688223;28;1310;-94
2023/12/21 02:09:22;;;;;;;13.02;8.75;;;;;;;12.98;61.49;99790.19;685650;28;1408;-95
2023/12/21 02:09:45;;;;;;;13.13;8.27;;;;;;;13.12;61.19;99811.16;688542;28;1154;-94
2023/12/21 02:10:09;;;;;;;11.63;8.17;;;;;;;13.11;61.35;99810.31;688380;28;1176;-96
2023/12/21 02:10:32;;;;;;;11.93;8.20;;;;;;;13.01;61.41;99803.28;694015;28;1279;-95
2023/12/21 02:11:07;;;;;;;12.57;8.45;;;;;;;13.05;61.47;99801.53;689039;28;1243;-96
2023/12/21 02:11:33;;;;;;;14.45;8.85;;;;;;;13.11;61.41;99794.59;688499;28;1194;-95
2023/12/21 02:12:06;;;;;;;13.55;8.85;;;;;;;13.19;61.07;99815.53;685764;28;1217;-93
2023/12/21 02:12:30;;;;;;;11.20;8.15;;;;;;;13.09;61.30;99798.94;688542;28;1354;-96
2023/12/21 02:12:56;;;;;;;11.77;7.95;;;;;;;13.07;61.07;99798.06;685550;28;1398;-96
2023/12/21 02:13:22;;;;;;;13.48;8.02;;;;;;;13.01;61.51;99779.72;685799;28;1332;-95
2023/12/21 02:14:03;;;;;;;14.43;7.88;;;;;;;13.13;61.42;99797.19;688415;28;1383;-95
2023/12/21 02:14:29;;;;;;;12.85;7.88;;;;;;;13.05;61.41;99810.28;688310;28;1330;-96
2023/12/21 02:14:50;;;;;;;12.10;8.13;;;;;;;13.10;61.28;99791.97;688466;28;1307;-96
2023/12/21 02:15:12;;;;;;;11.10;7.78;;;;;;;13.21;60.97;99802.47;682912;29;1198;-94
2023/12/21 02:15:35;;;;;;;11.95;8.15;;;;;;;13.13;61.28;99799.81;683136;29;1340;-95
2023/12/21 02:16:05;;;;;;;12.18;8.35;;;;;;;13.17;61.08;99798.97;691041;28;1250;-95
2023/12/21 02:16:48;;;;;;;11.60;8.15;;;;;;;13.18;61.16;99797.19;688531;28;1359;-96
2023/12/21 02:17:20;;;;;;;10.40;7.53;;;;;;;13.13;61.18;99797.19;685863;28;1291;-95
2023/12/21 02:17:46;;;;;;;10.27;7.60;;;;;;;13.08;61.20;99791.09;685694;28;1331;-93
2023/12/21 02:18:20;;;;;;;12.80;8.20;;;;;;;13.05;61.28;99794.56;683121;29;1392;-95
2023/12/21 02:18:45;;;;;;;13.00;7.97;;;;;;;13.10;61.18;99795.44;688427;28;1317;-96
2023/12/21 02:19:10;;;;;;;10.52;7.55;;;;;;;13.10;61.46;99797.19;685815;28;1335;-94
2023/12/21 02:19:32;;;;;;;10.35;7.70;;;;;;;13.04;61.53;99790.22;685756;28;1317;-95
2023/12/21 02:19:53;;;;;;;10.02;7.50;;;;;;;13.06;61.59;99801.56;682783;28;1309;-93
2023/12/21 02:20:20;;;;;;;9.40;7.22;;;;;;;12.98;61.58;99803.28;685685;28;1220;-95
2023/12/21 02:20:49;;;;;;;9.65;7.70;;;;;;;13.04;61.62;99795.44;688397;28;1387;-95
2023/12/21 02:21:13;;;;;;;11.07;8.00;;;;;;;12.95;61.47;99792.78;685750;28;1227;-94
2023/12/21 02:21:35;;;;;;;11.85;8.00;;;;;;;12.88;61.49;99784.91;686284;28;1219;-96
2023/12/21 02:22:01;;;;;;;11.82;8.13;;;;;;;12.94;61.84;99791.03;687460;28;1145;-95
2023/12/21 02:22:31;;;;;;;12.38;8.43;;;;;;;13.02;61.78;99799.78;682706;29;1429;-95
2023/12/21 02:22:56;;;;;;;12.65;8.50;;;;;;;13.02;61.90;99797.16;685786;28;1397;-96
2023/12/21 02:23:42;;;;;;;12.38;8.38;;;;;;;13.00;61.57;99789.31;688504;28;1907;-95
2023/12/21 02:24:20;;;;;;;11.63;8.35;;;;;;;12.89;61.95;99788.38;688352;28;1192;-95
2023/12/21 02:24:56;;;;;;;11.90;8.13;;;;;;;13.00;62.01;99797.19;688359;28;1285;-96
2023/12/21 02:25:20;;;;;;;11.63;8.48;;;;;;;13.00;61.90;99785.81;682126;28;1231;-95
2023/12/21 02:26:00;;;;;;;11.50;8.10;;;;;;;12.99;61.70;99776.22;685584;28;1456;-96
2023/12/21 02:26:35;;;;;;;11.98;7.80;;;;;;;13.01;61.77;99784.94;688165;28;1318;-96
2023/12/21 02:27:02;;;;;;;8.60;6.72;;;;;;;12.99;61.68;99786.69;687603;28;1285;-95
2023/12/21 02:27:23;;;;;;;8.40;6.40;;;;;;;13.09;61.63;99779.75;688399;28;1240;-94
2023/12/21 02:27:51;;;;;;;10.70;6.70;;;;;;;13.01;61.61;99777.97;688254;28;1220;-96
2023/12/21 02:28:26;;;;;;;14.45;7.20;;;;;;;13.09;61.56;99785.84;682996;29;1257;-95
2023/12/21 02:28:57;;;;;;;11.35;7.05;;;;;;;12.95;61.47;99777.06;685739;28;1192;-96
2023/12/21 02:29:20;;;;;;;13.27;7.43;;;;;;;12.99;61.58;99768.38;685406;28;1141;-95
2023/12/21 02:29:41;;;;;;;12.68;7.20;;;;;;;12.99;61.62;99760.50;688062;28;1304;-96
2023/12/21 02:30:12;;;;;;;14.68;7.30;;;;;;;13.08;61.57;99783.22;682899;29;1300;-95
2023/12/21 02:30:34;;;;;;;14.90;7.65;;;;;;;12.99;61.39;99776.22;685689;28;1296;-95
2023/12/21 02:32:55;;;;;;;12.48;6.90;;;;;;;13.08;61.69;99778.84;693736;28;677;-95
2023/12/21 02:33:40;;;;;;;9.93;6.50;;;;;;;13.05;61.70;99767.50;693986;28;711;-95
2023/12/21 02:34:22;;;;;;;11.52;7.00;;;;;;;13.14;61.30;99777.97;693962;28;676;-96
2023/12/21 02:35:10;;;;;;;10.15;7.20;;;;;;;13.09;61.42;99777.97;688558;28;703;-95
2023/12/21 02:35:57;;;;;;;10.73;7.57;;;;;;;13.10;61.50;99777.09;685875;28;716;-96
2023/12/21 02:36:40;;;;;;;10.63;7.90;;;;;;;13.14;61.41;99764.88;688740;28;708;-96
2023/12/21 02:37:33;;;;;;;10.25;7.50;;;;;;;13.14;61.26;99764.88;691105;28;1354;-93
2023/12/21 02:37:56;;;;;;;10.33;7.53;;;;;;;13.08;61.32;99757.03;685641;28;1222;-95
2023/12/21 02:38:25;;;;;;;12.48;8.00;;;;;;;13.13;61.38;99769.25;685526;28;1366;-95
2023/12/21 02:38:45;;;;;;;11.80;7.70;;;;;;;13.08;61.59;99763.13;685501;28;1378;-93
2023/12/21 02:39:06;;;;;;;12.02;7.38;;;;;;;13.06;61.36;99769.25;685424;28;1532;-94
2023/12/21 02:39:29;;;;;;;13.00;7.85;;;;;;;13.01;61.64;99745.66;685869;28;1453;-96
2023/12/21 02:39:50;;;;;;;14.68;8.50;;;;;;;13.10;61.36;99758.75;688156;28;1282;-96
2023/12/21 02:40:17;;;;;;;13.43;8.65;;;;;;;13.04;61.55;99755.28;685735;28;1313;-96
2023/12/21 02:40:44;;;;;;;11.80;8.02;;;;;;;13.10;61.60;99768.38;686355;28;1399;-96
2023/12/21 02:41:09;;;;;;;10.50;7.68;;;;;;;13.07;61.97;99769.25;685758;28;1311;-95
2023/12/21 02:42:43;;;;;;;11.55;8.10;;;;;;;13.10;61.41;99763.16;691200;28;1193;-95
2023/12/21 02:43:13;;;;;;;11.80;7.87;;;;;;;13.09;61.49;99764.88;684977;28;1481;-96
2023/12/21 02:44:10;;;;;;;10.70;7.18;;;;;;;13.15;61.71;99783.22;685805;28;1312;-96
2023/12/21 02:44:56;;;;;;;11.02;7.45;;;;;;;13.05;61.86;99763.13;688491;28;1256;-96
2023/12/21 02:45:37;;;;;;;12.55;8.07;;;;;;;13.11;61.67;99771.00;685608;28;1277;-96
2023/12/21 02:46:11;;;;;;;12.10;8.30;;;;;;;13.02;61.65;99753.53;684921;28;1399;-96
2023/12/21 02:46:57;;;;;;;12.90;8.55;;;;;;;12.97;61.68;99742.16;685817;28;1435;-96
2023/12/21 02:48:16;;;;;;;13.73;8.57;;;;;;;12.98;61.89;99740.44;692186;28;687;-96
2023/12/21 02:49:02;;;;;;;14.93;8.80;;;;;;;12.98;61.83;99735.19;692399;28;1408;-96
2023/12/21 02:49:43;;;;;;;16.58;8.93;;;;;;;13.05;61.72;99751.78;685091;28;1338;-96
2023/12/21 02:50:13;;;;;;;15.20;8.25;;;;;;;13.08;61.59;99752.66;680758;29;1245;-96
2023/12/21 02:56:19;;;;;;;13.25;9.50;;;;;;;13.06;61.53;99728.22;691154;28;1383;-96
2023/12/21 02:56:58;;;;;;;13.38;9.10;;;;;;;12.97;61.84;99728.22;688650;28;1263;-96
2023/12/21 02:57:43;;;;;;;13.45;8.88;;;;;;;13.10;61.77;99740.44;686475;28;1364;-96
2023/12/21 02:58:28;;;;;;;13.38;9.55;;;;;;;13.06;61.41;99720.38;685997;28;1288;-96
2023/12/21 02:59:47;;;;;;;13.13;9.13;;;;;;;12.91;62.19;99691.50;680700;28;1458;-96
2023/12/21 03:00:35;;;;;;;15.65;9.90;;;;;;;12.96;61.82;99705.53;689173;28;1324;-96
2023/12/21 03:01:07;;;;;;;14.68;9.65;;;;;;;12.99;61.91;99697.66;689178;28;1342;-96
2023/12/21 03:01:45;;;;;;;14.75;9.48;;;;;;;13.07;61.81;99705.50;683534;29;1238;-96
2023/12/21 03:02:18;;;;;;;13.70;8.77;;;;;;;13.19;61.87;99725.59;681056;29;1353;-96
2023/12/21 03:02:55;;;;;;;14.82;9.65;;;;;;;12.97;61.67;99715.97;688412;28;1417;-96
2023/12/21 03:03:33;;;;;;;15.77;10.93;;;;;;;13.06;62.03;99696.78;686803;28;1903;-96
2023/12/21 03:04:16;;;;;;;12.73;9.23;;;;;;;13.08;61.68;99697.66;686777;28;1430;-96
2023/12/21 03:04:42;;;;;;;13.80;9.25;;;;;;;13.09;61.87;99706.41;694879;28;1281;-96
2023/12/21 03:05:24;;;;;;;14.93;9.02;;;;;;;12.94;61.78;99705.50;688314;28;1452;-96
2023/12/21 03:06:38;;;;;;;13.85;9.25;;;;;;;12.97;61.99;99697.66;686804;28;1195;-96
2023/12/21 03:08:17;;;;;;;12.50;8.90;;;;;;;13.10;61.67;99698.53;698295;28;695;-96
2023/12/21 03:09:44;;;;;;;11.65;8.57;;;;;;;13.15;61.70;99702.03;684321;29;1135;-96
2023/12/21 03:10:44;;;;;;;11.10;8.57;;;;;;;13.10;61.43;99697.66;694518;28;725;-96
2023/12/21 03:11:32;;;;;;;15.95;9.55;;;;;;;13.17;61.61;99704.66;694720;28;948;-96
2023/12/21 03:14:22;;;;;;;13.18;9.02;;;;;;;13.07;61.69;99685.44;700139;28;722;-96
2023/12/21 03:15:10;;;;;;;15.80;9.55;;;;;;;13.09;61.64;99694.16;697142;28;1327;-96
2023/12/21 03:15:44;;;;;;;11.63;8.70;;;;;;;13.07;61.68;99685.44;690525;28;1273;-96
2023/12/21 03:16:29;;;;;;;12.43;9.43;;;;;;;13.11;61.68;99710.78;683906;28;1287;-96
2023/12/21 03:16:55;;;;;;;13.50;9.88;;;;;;;13.02;61.70;99685.44;683756;29;1282;-96
2023/12/21 03:17:18;;;;;;;15.38;10.75;;;;;;;13.09;61.91;99691.53;683196;29;1504;-96
2023/12/21 03:17:59;;;;;;;15.77;10.40;;;;;;;13.01;61.77;99693.28;688788;28;1208;-96
2023/12/21 03:18:36;;;;;;;15.35;9.90;;;;;;;13.04;61.95;99677.59;689305;28;1227;-96
2023/12/21 03:19:23;;;;;;;;;;;;;;;;;;;;;
2023/12/21 03:19:51;;;;;;;21.42;11.50;;;;;;;13.02;61.89;99676.69;691465;28;1311;-96
2023/12/21 03:20:44;;;;;;;18.60;11.18;;;;;;;13.07;61.86;99685.44;688421;28;1298;-96
2023/12/21 03:21:09;;;;;;;14.25;9.82;;;;;;;13.15;61.89;99681.06;689390;28;1164;-96
2023/12/21 03:21:37;;;;;;;14.77;9.90;;;;;;;13.14;61.96;99700.28;689060;28;1284;-95
2023/12/21 03:22:00;;;;;;;14.02;9.98;;;;;;;13.07;61.85;99688.06;685668;28;1331;-95
2023/12/21 03:22:26;;;;;;;13.57;9.77;;;;;;;13.12;61.96;99686.31;685289;28;1292;-96
2023/12/21 03:23:05;;;;;;;13.32;9.40;;;;;;;13.05;61.81;99695.06;688752;28;1155;-96
2023/12/21 03:23:35;;;;;;;16.23;9.88;;;;;;;13.13;61.80;99698.53;688989;28;1537;-96
2023/12/21 03:24:02;;;;;;;17.05;10.15;;;;;;;13.15;61.75;99699.41;686113;28;1334;-96
2023/12/21 03:26:28;;;;;;;13.13;9.77;;;;;;;13.16;61.95;99682.81;693673;28;1072;-96
2023/12/21 03:26:49;;;;;;;14.88;10.02;;;;;;;13.09;61.93;99688.91;693725;28;1338;-95
2023/12/21 03:27:12;;;;;;;14.52;9.75;;;;;;;13.12;61.99;99690.69;685855;28;1264;-96
2023/12/21 03:27:43;;;;;;;15.23;10.50;;;;;;;13.05;61.91;99681.06;688575;28;1431;-96
2023/12/21 03:28:19;;;;;;;14.68;10.40;;;;;;;13.18;62.07;99689.78;691315;28;1294;-96